Arviat Airport
CYEK : now visible

Airfield :











YOU CAN JOIN US ON...

 
LOGIN :

Register | Disclaimer

   EN    FR    IT 

 









Legend :    VFR   Marginal VFR   IFR   Intensive IFR   Very Intensive IFR
Visi :
Ceiling :
>= 8 km
>= 3000ft
5 to 8 km
1000 to 3000 ft
1500m to 5 km
500 to 1000 ft
800 to 1500m
200 to 500 ft
< 800m
< 200 ft
Symbols :   Thunderstorms  Fog  Heavy snow  Heavy precipitations  Wind > 20 kt






- Airport Elevation : 32 ft
- IATA code : YEK


CYEK - Arviat

CURRENT METAR :
  • 061500Z 26007KT 15SM BKN100 M26/M29 A2983 RMK AC7 SLP106

EXPIRED METARs :
  • 061400Z 25007KT 15SM FEW110 M26/M29 A2984 RMK AS1 SLP108
  • 061300Z 26009KT 15SM SKC M25/M27 A2985 RMK AFT 00UTC/9.0CM/S01/SNW CVR/ONE LOOSE SLP111

TAF TAF CYEK
Valid from the 06 at 12:00 until the 07 at 00:00 UTC


061138Z 0612/0624 26006KT P6SM SCT030 BKN070
TEMPO 0612/0620 21/2SM -SN BR OVC030
BECMG 0616/0618 32010KT
FM062000 32010KT P6SM SCT030 RMK FCST BASED ON AUTO OBS. NXT FCST BY 061800Z



MET'MAP, your aeronautical weather chart ! - Copyright ORBIFLY December 2007 - Disclaimer

ORBIFLY MET'MAP TEAM :

Programming & Development : Alexandra Zaïnal
Concept & original design : Baudouin d'Aumeries
Assistance for programming : Marc-Olivier Méhu
Technical & hardware support : Manuel Goepfert

Contact : metmap@orbifly.com




SOURCES & CREDITS :

   NOAA       Earth
Advisory